Terminal Aerodrome Forecast
Issued by NWS

Home | Current Version | Previous Version | Text Only | Print | Product List | Glossary On
Versions: 1 2 3 4 5 6 7 8 9 10 11 12 13 14 15 16 17 18 19 20
790
FTUS43 KIND 190520
TAFHUF
TAF
KHUF 190520Z 1906/2006 VRB03KT P6SM SCT010
     FM191000 VRB03KT P6SM BKN250
     FM191300 12005KT P6SM OVC080
     FM191800 11007KT P6SM OVC060
     FM192000 11007KT 2SM -RA OVC020
     FM192200 11007KT 1 1/2SM -RA OVC008
     FM200000 11008KT 1SM RA OVC003
     FM200500 14006KT 1SM RA OVC003=

USA.gov is the U.S. government's official web portal to all federal, state and local government web resources and services.